Time;durP1;ratioP1;P1;durP2;ratioP2;P2;SDS_P1;SDS_P2;PMS_P1;PMS_P2;Temp;Humidity;BMP_temperature;BMP_pressure;BME280_temperature;BME280_humidity;BME280_pressure;Samples;Min_cycle;Max_cycle;Signal;HPM_P1;HPM_P2
2021/03/09 00:00:08;;;;;;;4.43;2.73;;;;;;;2.71;53.75;101288.53;5091768;28;20231;-64
2021/03/09 00:02:34;;;;;;;5.43;2.80;;;;;;;2.70;54.23;101290.31;5090262;28;20723;-64
2021/03/09 00:05:00;;;;;;;4.53;3.00;;;;;;;2.71;53.86;101289.41;5080435;28;20224;-64
2021/03/09 00:07:26;;;;;;;3.97;2.50;;;;;;;2.70;53.97;101287.69;5086985;28;20204;-64
2021/03/09 00:09:52;;;;;;;4.73;2.80;;;;;;;2.70;54.56;101282.41;5090688;28;20228;-64
2021/03/09 00:12:20;;;;;;;4.27;2.60;;;;;;;2.70;54.37;101285.03;5088822;28;20235;-64
2021/03/09 00:14:46;;;;;;;4.20;2.70;;;;;;;2.69;54.35;101288.56;5091390;28;20253;-64
2021/03/09 00:17:12;;;;;;;6.00;3.00;;;;;;;2.70;53.99;101277.16;5087318;28;20252;-64
2021/03/09 00:19:38;;;;;;;4.73;3.27;;;;;;;2.70;54.06;101282.41;5091428;28;20205;-65
2021/03/09 00:22:04;;;;;;;5.20;3.57;;;;;;;2.71;54.21;101278.03;5085492;28;20331;-64
2021/03/09 00:24:30;;;;;;;6.80;3.40;;;;;;;2.71;54.55;101272.75;5089575;28;20220;-64
2021/03/09 00:26:56;;;;;;;5.00;3.10;;;;;;;2.72;54.68;101278.00;5091180;28;20233;-64
2021/03/09 00:29:23;;;;;;;5.07;3.47;;;;;;;2.71;54.22;101268.38;5093027;28;20735;-64
2021/03/09 00:31:49;;;;;;;4.33;3.50;;;;;;;2.71;54.06;101272.75;5083379;28;20235;-65
2021/03/09 00:34:15;;;;;;;4.70;3.63;;;;;;;2.71;54.48;101268.38;5082850;28;20201;-64
2021/03/09 00:36:41;;;;;;;7.07;4.30;;;;;;;2.72;54.08;101264.84;5086549;28;20697;-64
2021/03/09 00:39:07;;;;;;;7.57;4.17;;;;;;;2.71;54.62;101268.38;5092160;28;20281;-64
2021/03/09 00:41:33;;;;;;;8.83;4.87;;;;;;;2.73;54.53;101277.09;5091602;28;20318;-63
2021/03/09 00:43:59;;;;;;;9.10;5.50;;;;;;;2.73;53.95;101268.34;5087804;28;20698;-65
2021/03/09 00:46:26;;;;;;;7.73;5.23;;;;;;;2.73;54.35;101266.56;5088881;28;20211;-64
2021/03/09 00:48:52;;;;;;;7.80;5.40;;;;;;;2.73;54.11;101271.84;5085432;28;20266;-65
2021/03/09 00:51:18;;;;;;;7.77;5.47;;;;;;;2.74;54.64;101268.31;5081528;28;20228;-64
2021/03/09 00:53:43;;;;;;;8.20;5.47;;;;;;;2.74;54.44;101263.06;5089194;28;20284;-64
2021/03/09 00:56:09;;;;;;;10.43;6.43;;;;;;;2.73;54.41;101258.69;5087159;28;20262;-64
2021/03/09 00:58:35;;;;;;;12.77;7.63;;;;;;;2.74;54.41;101260.41;5092582;28;20575;-64
2021/03/09 01:01:01;;;;;;;9.50;6.67;;;;;;;2.75;54.55;101258.66;5086348;28;20661;-64
2021/03/09 01:03:28;;;;;;;9.33;6.73;;;;;;;2.74;54.46;101249.91;5085342;28;20301;-64
2021/03/09 01:05:54;;;;;;;9.60;6.63;;;;;;;2.74;55.14;101249.03;5081011;28;20223;-64
2021/03/09 01:08:20;;;;;;;11.03;8.43;;;;;;;2.74;54.63;101247.28;5090241;28;20205;-64
2021/03/09 01:10:46;;;;;;;10.23;6.97;;;;;;;2.73;55.02;101248.16;5083859;28;20252;-64
2021/03/09 01:13:12;;;;;;;12.77;7.43;;;;;;;2.73;55.23;101250.78;5085407;28;20756;-64
2021/03/09 01:15:38;;;;;;;13.77;8.77;;;;;;;2.73;55.45;101240.28;5080053;28;20206;-65
2021/03/09 01:18:05;;;;;;;11.30;7.73;;;;;;;2.74;54.82;101241.16;5086739;28;20684;-64
2021/03/09 01:20:32;;;;;;;15.93;8.80;;;;;;;2.72;54.90;101238.53;5091481;28;20604;-64
2021/03/09 01:22:58;;;;;;;14.43;8.17;;;;;;;2.71;55.24;101234.19;5090200;28;20201;-64
2021/03/09 01:25:24;;;;;;;10.13;6.93;;;;;;;2.70;55.46;101235.06;5087907;28;20220;-64
2021/03/09 01:27:50;;;;;;;12.73;8.30;;;;;;;2.70;55.44;101228.94;5087980;28;20212;-64
2021/03/09 01:30:18;;;;;;;10.30;7.73;;;;;;;2.69;55.27;101233.34;5078076;28;20314;-64
2021/03/09 01:32:44;;;;;;;13.53;8.40;;;;;;;2.69;55.41;101228.09;5085171;28;20205;-64
2021/03/09 01:35:11;;;;;;;11.93;7.57;;;;;;;2.67;55.93;101224.66;5084794;28;20201;-64
2021/03/09 01:37:38;;;;;;;13.27;9.73;;;;;;;2.66;56.34;101209.78;5083396;28;20219;-64
2021/03/09 01:40:06;;;;;;;13.37;9.20;;;;;;;2.65;56.04;101215.94;5077357;28;20239;-64
2021/03/09 01:42:33;;;;;;;14.80;9.20;;;;;;;2.65;55.90;101212.44;5079066;28;20217;-64
2021/03/09 01:44:59;;;;;;;15.13;9.30;;;;;;;2.63;56.36;101211.59;5081950;28;20220;-65
2021/03/09 01:47:25;;;;;;;12.00;8.57;;;;;;;2.63;56.52;101211.59;5085054;28;20588;-64
2021/03/09 01:49:51;;;;;;;12.70;8.80;;;;;;;2.62;56.16;101205.47;5082077;28;20310;-65
2021/03/09 01:52:17;;;;;;;11.90;8.43;;;;;;;2.60;56.83;101196.75;5088747;28;20200;-64
2021/03/09 01:54:44;;;;;;;15.90;8.80;;;;;;;2.59;56.61;101195.00;5084399;28;20242;-64
2021/03/09 01:57:10;;;;;;;11.17;8.13;;;;;;;2.60;56.21;101202.00;5083961;28;20212;-64
2021/03/09 01:59:37;;;;;;;15.47;8.50;;;;;;;2.58;56.71;101198.53;5085260;28;20265;-64
2021/03/09 02:02:03;;;;;;;12.17;8.40;;;;;;;2.59;56.61;101199.41;5081865;28;20265;-64
2021/03/09 02:04:29;;;;;;;14.10;9.00;;;;;;;2.58;56.84;101195.03;5072086;28;20235;-64
2021/03/09 02:06:55;;;;;;;12.87;8.70;;;;;;;2.58;56.30;101195.91;5089919;28;20658;-65
2021/03/09 02:09:23;;;;;;;15.80;9.27;;;;;;;2.57;56.58;101193.31;5088677;28;20258;-64
2021/03/09 02:12:05;;;;;;;12.90;8.67;;;;;;;2.56;56.90;101184.56;5086207;28;20211;-64
2021/03/09 02:14:36;;;;;;;12.80;8.33;;;;;;;2.57;56.95;101188.06;5091056;28;20196;-64
2021/03/09 02:17:10;;;;;;;14.57;9.27;;;;;;;2.56;57.38;101184.56;5091589;28;20200;-64
2021/03/09 02:20:09;;;;;;;11.93;8.63;;;;;;;2.55;57.52;101182.81;5074365;28;20225;-65
2021/03/09 02:23:26;;;;;;;14.20;8.77;;;;;;;2.54;56.58;101186.34;5086056;28;20692;-65
2021/03/09 02:26:15;;;;;;;12.30;8.77;;;;;;;2.55;56.87;101181.97;5090898;28;20199;-64
2021/03/09 02:28:47;;;;;;;12.30;8.83;;;;;;;2.53;56.92;101176.72;5077484;28;20731;-64
2021/03/09 02:31:15;;;;;;;13.43;8.73;;;;;;;2.54;57.05;101181.09;5076545;28;20247;-64
2021/03/09 02:33:45;;;;;;;14.23;9.37;;;;;;;2.53;57.11;101168.84;5077760;28;20230;-64
2021/03/09 02:36:14;;;;;;;14.30;9.27;;;;;;;2.55;57.16;101166.19;5085333;28;20200;-64
2021/03/09 02:38:45;;;;;;;17.70;8.87;;;;;;;2.55;57.55;101160.94;5090598;28;20205;-64
2021/03/09 02:41:13;;;;;;;15.90;9.50;;;;;;;2.54;57.66;101160.06;5083600;28;20234;-64
2021/03/09 02:43:43;;;;;;;13.57;8.93;;;;;;;2.54;57.18;101157.44;5082456;28;20227;-65
2021/03/09 02:46:10;;;;;;;15.20;9.53;;;;;;;2.54;57.68;101160.06;5088769;28;20277;-64
2021/03/09 02:48:39;;;;;;;13.97;9.13;;;;;;;2.54;57.07;101157.44;5087111;28;20705;-64
2021/03/09 02:51:06;;;;;;;14.60;9.57;;;;;;;2.55;57.79;101153.91;5081748;28;20245;-64
2021/03/09 02:53:35;;;;;;;15.73;9.50;;;;;;;2.53;57.76;101155.69;5089381;28;20246;-64
2021/03/09 02:56:04;;;;;;;18.17;10.50;;;;;;;2.53;57.51;101158.31;5090209;28;20658;-64
2021/03/09 02:58:31;;;;;;;18.37;9.33;;;;;;;2.51;57.52;101151.41;5089717;28;20216;-64
2021/03/09 03:00:57;;;;;;;16.57;10.00;;;;;;;2.51;57.73;101151.41;5085735;28;20225;-65
2021/03/09 03:03:25;;;;;;;15.23;10.03;;;;;;;2.50;57.99;101153.16;5084460;28;20196;-64
2021/03/09 03:05:56;;;;;;;17.03;10.87;;;;;;;2.49;57.87;101148.81;5084881;28;20234;-64
2021/03/09 03:08:24;;;;;;;16.17;10.27;;;;;;;2.48;58.22;101141.81;5087285;28;20208;-64
2021/03/09 03:10:52;;;;;;;15.90;10.53;;;;;;;2.49;58.25;101140.06;5085533;28;20721;-64
2021/03/09 03:13:19;;;;;;;14.60;9.40;;;;;;;2.48;57.91;101147.06;5072172;28;20254;-64
2021/03/09 03:15:49;;;;;;;16.23;9.97;;;;;;;2.47;58.08;101134.81;5077380;28;20204;-65
2021/03/09 03:18:18;;;;;;;16.87;10.70;;;;;;;2.48;58.27;101139.19;5091423;28;20211;-65
2021/03/09 03:20:45;;;;;;;17.53;10.57;;;;;;;2.47;58.41;101134.81;5089334;28;20224;-64
2021/03/09 03:23:13;;;;;;;17.17;10.70;;;;;;;2.48;57.77;101133.06;5092740;28;20200;-64
2021/03/09 03:25:40;;;;;;;15.73;10.33;;;;;;;2.46;58.60;101130.47;5080083;28;20229;-64
2021/03/09 03:28:08;;;;;;;17.57;9.63;;;;;;;2.47;58.44;101126.06;5086570;28;20223;-65
2021/03/09 03:30:34;;;;;;;20.23;11.43;;;;;;;2.47;58.40;101120.81;5085406;28;20232;-64
2021/03/09 03:33:01;;;;;;;16.43;10.03;;;;;;;2.47;58.64;101128.69;5079726;28;20683;-64
2021/03/09 03:35:27;;;;;;;14.43;9.43;;;;;;;2.46;58.45;101126.97;5082273;28;20274;-64
2021/03/09 03:37:54;;;;;;;19.77;11.07;;;;;;;2.47;58.72;101126.06;5092039;28;20215;-64
2021/03/09 03:40:22;;;;;;;16.17;9.80;;;;;;;2.46;58.36;101119.09;5078999;28;20229;-64
2021/03/09 03:42:49;;;;;;;14.80;10.23;;;;;;;2.46;58.82;101126.97;5089343;28;20678;-64
2021/03/09 03:45:18;;;;;;;18.07;10.73;;;;;;;2.45;58.97;101131.34;5082351;28;20239;-64
2021/03/09 03:47:44;;;;;;;16.83;10.57;;;;;;;2.46;58.91;101119.94;5087880;28;20201;-65
2021/03/09 03:50:13;;;;;;;18.57;10.87;;;;;;;2.44;58.47;101119.97;5093827;28;20227;-64
2021/03/09 03:52:48;;;;;;;18.63;11.63;;;;;;;2.44;59.31;101116.47;5088659;28;20208;-64
2021/03/09 03:55:25;;;;;;;15.90;10.30;;;;;;;2.45;58.36;101126.09;5074859;28;20600;-64
2021/03/09 03:57:54;;;;;;;19.30;10.50;;;;;;;2.44;59.05;101112.09;5083484;28;20589;-64
2021/03/09 04:00:22;;;;;;;18.97;11.13;;;;;;;2.43;59.26;101115.63;5081080;28;20310;-64
2021/03/09 04:02:50;;;;;;;17.53;11.47;;;;;;;2.43;58.57;101104.25;5089547;28;20671;-64
2021/03/09 04:05:17;;;;;;;18.23;11.23;;;;;;;2.42;58.97;101106.00;5079956;28;20228;-64
2021/03/09 04:07:46;;;;;;;17.20;11.20;;;;;;;2.42;59.65;101102.50;5089806;28;20205;-64
2021/03/09 04:10:12;;;;;;;17.97;11.83;;;;;;;2.42;59.09;101106.00;5086603;28;20220;-64
2021/03/09 04:12:40;;;;;;;19.00;11.90;;;;;;;2.41;59.42;101099.00;5081549;28;20730;-65
2021/03/09 04:15:07;;;;;;;17.17;10.30;;;;;;;2.40;59.89;101099.91;5093038;28;20227;-64
2021/03/09 04:17:34;;;;;;;17.57;11.40;;;;;;;2.42;59.72;101097.25;5087085;28;20204;-64
2021/03/09 04:20:04;;;;;;;21.13;11.60;;;;;;;2.41;59.66;101095.50;5092944;28;20228;-64
2021/03/09 04:22:31;;;;;;;16.20;10.63;;;;;;;2.40;59.19;101096.41;5086274;28;20670;-64
2021/03/09 04:24:59;;;;;;;19.47;11.53;;;;;;;2.39;59.74;101092.91;5087298;28;20706;-64
2021/03/09 04:27:25;;;;;;;21.27;12.13;;;;;;;2.39;59.60;101094.69;5089063;28;20208;-63
2021/03/09 04:29:54;;;;;;;20.77;12.03;;;;;;;2.40;59.85;101094.66;5091363;28;20224;-64
2021/03/09 04:32:21;;;;;;;19.73;10.83;;;;;;;2.39;60.08;101092.91;5090914;28;20211;-65
2021/03/09 04:34:48;;;;;;;21.37;12.07;;;;;;;2.40;59.80;101093.78;5092147;28;20234;-64
2021/03/09 04:37:15;;;;;;;20.50;11.60;;;;;;;2.39;59.83;101082.41;5091615;28;20207;-64
2021/03/09 04:39:42;;;;;;;21.90;12.97;;;;;;;2.40;59.88;101093.78;5088545;28;20208;-64
2021/03/09 04:42:09;;;;;;;21.00;12.57;;;;;;;2.40;60.26;101099.91;5079676;28;20518;-64
2021/03/09 04:44:35;;;;;;;20.27;11.47;;;;;;;2.39;60.53;101092.06;5090341;28;20228;-64
2021/03/09 04:47:03;;;;;;;20.53;12.03;;;;;;;2.41;60.44;101095.50;5092165;28;20200;-64
2021/03/09 04:49:30;;;;;;;24.00;12.40;;;;;;;2.40;59.78;101083.28;5091677;28;20653;-64
2021/03/09 04:51:56;;;;;;;19.23;11.23;;;;;;;2.41;60.44;101092.88;5092004;28;20284;-64
2021/03/09 04:54:22;;;;;;;20.10;12.37;;;;;;;2.41;60.72;101093.75;5091861;28;20261;-65
2021/03/09 04:56:48;;;;;;;18.40;11.67;;;;;;;2.41;60.29;101085.00;5087783;28;20591;-65
2021/03/09 04:59:14;;;;;;;20.33;11.87;;;;;;;2.42;60.64;101081.47;5078844;28;20231;-64
2021/03/09 05:01:40;;;;;;;19.20;11.23;;;;;;;2.43;60.79;101088.47;5082054;28;20220;-64
2021/03/09 05:04:07;;;;;;;21.13;11.83;;;;;;;2.41;60.59;101085.00;5091353;28;20224;-64
2021/03/09 05:06:33;;;;;;;19.67;11.70;;;;;;;2.43;60.70;101077.94;5088497;28;20208;-64
2021/03/09 05:08:59;;;;;;;22.07;11.03;;;;;;;2.44;60.63;101084.94;5080476;28;20284;-64
2021/03/09 05:11:27;;;;;;;19.87;11.47;;;;;;;2.45;60.01;101084.03;5080479;28;20259;-64
2021/03/09 05:13:55;;;;;;;19.67;10.83;;;;;;;2.46;60.26;101080.50;5084688;28;20196;-65
2021/03/09 05:16:21;;;;;;;17.83;11.07;;;;;;;2.47;60.14;101078.75;5090993;28;20212;-64
2021/03/09 05:18:47;;;;;;;18.60;11.27;;;;;;;2.48;60.37;101077.84;5089268;28;20204;-65
2021/03/09 05:21:13;;;;;;;18.17;11.27;;;;;;;2.48;60.18;101088.38;5083967;28;20238;-64
2021/03/09 05:23:39;;;;;;;18.27;10.80;;;;;;;2.48;60.15;101069.97;5087306;28;20214;-65
2021/03/09 05:26:06;;;;;;;18.90;10.97;;;;;;;2.48;60.08;101078.72;5090173;28;20208;-64
2021/03/09 05:28:32;;;;;;;18.50;11.30;;;;;;;2.47;60.83;101069.09;5089783;28;20211;-64
2021/03/09 05:30:59;;;;;;;16.03;9.43;;;;;;;2.49;60.50;101079.59;5084956;28;20223;-64
2021/03/09 05:33:26;;;;;;;14.60;9.50;;;;;;;2.49;60.83;101080.44;5089197;28;20217;-64
2021/03/09 05:35:52;;;;;;;17.13;9.67;;;;;;;2.51;60.30;101089.13;5082198;28;20200;-65
2021/03/09 05:38:19;;;;;;;15.50;9.33;;;;;;;2.53;60.62;101095.22;5090927;28;20261;-64
2021/03/09 05:40:45;;;;;;;14.33;9.33;;;;;;;2.54;60.96;101096.97;5089464;28;20227;-64
2021/03/09 05:43:11;;;;;;;15.63;9.80;;;;;;;2.56;60.89;101089.91;5087206;28;20576;-64
2021/03/09 05:45:38;;;;;;;16.20;8.90;;;;;;;2.57;60.55;101083.75;5089635;28;20235;-64
2021/03/09 05:48:04;;;;;;;14.70;9.03;;;;;;;2.59;61.09;101091.59;5085042;28;20212;-64
2021/03/09 05:50:30;;;;;;;19.40;9.33;;;;;;;2.60;60.74;101088.06;5084229;28;20227;-64
2021/03/09 05:52:57;;;;;;;14.20;8.53;;;;;;;2.62;60.58;101089.75;5084133;28;20242;-64
2021/03/09 05:55:23;;;;;;;16.93;9.17;;;;;;;2.63;61.45;101094.13;5086909;28;20208;-64
2021/03/09 05:57:50;;;;;;;16.57;9.13;;;;;;;2.65;60.93;101091.47;5082497;28;20200;-64
2021/03/09 06:00:17;;;;;;;15.07;9.30;;;;;;;2.65;61.13;101092.31;5081806;28;20228;-64
2021/03/09 06:02:44;;;;;;;16.67;9.43;;;;;;;2.65;61.11;101092.31;5087063;28;20209;-64
2021/03/09 06:05:11;;;;;;;16.87;10.10;;;;;;;2.66;61.76;101093.19;5088404;28;20219;-65
2021/03/09 06:07:37;;;;;;;15.90;9.03;;;;;;;2.65;62.11;101092.31;5087403;28;20210;-63
2021/03/09 06:10:05;;;;;;;15.27;9.03;;;;;;;2.64;62.36;101089.72;5088635;28;20227;-64
2021/03/09 06:12:33;;;;;;;16.80;9.83;;;;;;;2.64;62.15;101087.09;5089706;28;20213;-64
2021/03/09 06:15:02;;;;;;;17.70;10.73;;;;;;;2.62;63.02;101088.91;5085897;28;20200;-64
2021/03/09 06:17:30;;;;;;;16.87;10.13;;;;;;;2.58;63.07;101081.97;5083236;28;20214;-64
2021/03/09 06:19:57;;;;;;;16.53;10.07;;;;;;;2.57;63.09;101081.13;5089116;28;20596;-65
2021/03/09 06:22:38;;;;;;;17.27;10.17;;;;;;;2.54;64.14;101088.19;5088809;28;20209;-64
2021/03/09 06:25:07;;;;;;;16.10;10.37;;;;;;;2.51;63.61;101086.50;5088167;28;20304;-64
2021/03/09 06:27:34;;;;;;;21.73;10.47;;;;;;;2.49;64.38;101077.81;5087167;28;20205;-64
2021/03/09 06:30:01;;;;;;;18.30;11.73;;;;;;;2.47;64.41;101081.38;5084710;28;20219;-67
2021/03/09 06:32:37;;;;;;;17.87;10.67;;;;;;;2.45;65.24;101084.03;5084682;28;20208;-67
2021/03/09 06:35:04;;;;;;;19.33;10.87;;;;;;;2.44;64.64;101079.69;5089116;28;20200;-65
2021/03/09 06:37:30;;;;;;;18.20;11.50;;;;;;;2.43;65.28;101083.19;5089722;28;20219;-65
2021/03/09 06:39:58;;;;;;;18.80;10.70;;;;;;;2.42;65.40;101077.09;5088854;28;20231;-66
2021/03/09 06:42:31;;;;;;;20.90;11.77;;;;;;;2.41;65.74;101082.38;5082089;28;20232;-68
2021/03/09 06:45:00;;;;;;;18.43;11.27;;;;;;;2.39;66.26;101081.53;5082073;28;21103;-67
2021/03/09 06:47:40;;;;;;;18.83;10.67;;;;;;;2.36;66.35;101081.59;5088189;28;20200;-66
2021/03/09 06:50:09;;;;;;;20.60;11.63;;;;;;;2.32;66.38;101082.59;5087461;28;20232;-66
2021/03/09 06:52:35;;;;;;;20.90;11.67;;;;;;;2.28;66.77;101084.44;5084352;28;20280;-66
2021/03/09 06:55:01;;;;;;;18.27;10.90;;;;;;;2.24;67.23;101077.50;5091960;28;20196;-65
2021/03/09 06:57:28;;;;;;;19.13;10.47;;;;;;;2.21;67.55;101081.94;5092159;28;20199;-66
2021/03/09 06:59:55;;;;;;;20.03;11.30;;;;;;;2.17;67.53;101078.53;5091050;28;20690;-67
2021/03/09 07:02:23;;;;;;;20.70;11.33;;;;;;;2.14;67.56;101083.88;5081183;28;20239;-68
2021/03/09 07:04:50;;;;;;;20.47;11.37;;;;;;;2.09;67.73;101083.97;5087749;28;20220;-67
2021/03/09 07:07:22;;;;;;;22.27;12.17;;;;;;;2.06;68.58;101078.78;5087888;28;20204;-67
2021/03/09 07:09:56;;;;;;;20.00;12.10;;;;;;;2.04;68.98;101082.31;5089898;28;20601;-66
2021/03/09 07:12:23;;;;;;;19.40;11.43;;;;;;;2.00;68.86;101078.88;5088704;28;20286;-70
2021/03/09 07:14:50;;;;;;;22.57;11.67;;;;;;;1.98;69.14;101078.06;5090080;28;20203;-67
2021/03/09 07:17:21;;;;;;;20.93;11.93;;;;;;;1.93;69.94;101081.69;5089839;28;20231;-67
2021/03/09 07:19:48;;;;;;;22.60;11.17;;;;;;;1.90;69.54;101079.13;5088857;28;20277;-66
2021/03/09 07:22:17;;;;;;;24.73;13.03;;;;;;;1.85;69.93;101079.22;5088541;28;20254;-68
2021/03/09 07:24:54;;;;;;;17.43;11.23;;;;;;;1.84;70.55;101085.38;5090478;28;20228;-67
2021/03/09 07:27:26;;;;;;;21.60;12.23;;;;;;;1.81;70.70;101080.16;5091224;28;20205;-66
2021/03/09 07:29:56;;;;;;;22.27;12.00;;;;;;;1.78;71.23;101082.88;5088367;28;20243;-68
2021/03/09 07:32:26;;;;;;;21.73;11.33;;;;;;;1.77;71.40;101077.66;5087794;28;20208;-68
2021/03/09 07:34:53;;;;;;;24.83;13.10;;;;;;;1.73;71.48;101077.72;5090331;28;20253;-69
2021/03/09 07:37:20;;;;;;;23.03;13.00;;;;;;;1.72;71.58;101077.75;5086527;28;20249;-69
2021/03/09 07:42:18;;;;;;;24.47;12.67;;;;;;;1.67;72.13;101075.22;5109592;22;20309;-69
2021/03/09 07:44:46;;;;;;;23.43;12.33;;;;;;;1.65;72.63;101074.38;5079886;28;20235;-68
2021/03/09 07:47:13;;;;;;;24.87;12.90;;;;;;;1.63;72.63;101077.91;5089037;28;20228;-68
2021/03/09 07:49:40;;;;;;;22.93;13.10;;;;;;;1.61;72.92;101070.06;5083604;28;20204;-69
2021/03/09 07:52:16;;;;;;;24.50;12.87;;;;;;;1.59;72.78;101073.66;5089991;28;20785;-69
2021/03/09 07:55:18;;;;;;;25.87;12.63;;;;;;;1.57;73.45;101081.56;5085742;28;22254;-69
2021/03/09 07:57:44;;;;;;;26.40;13.10;;;;;;;1.56;73.51;101068.44;5088144;28;20203;-69
2021/03/09 08:00:12;;;;;;;21.30;12.57;;;;;;;1.53;73.75;101058.88;5090562;28;20753;-69
2021/03/09 08:02:47;;;;;;;23.67;13.23;;;;;;;1.52;74.04;101064.16;5087730;28;20232;-67
2021/03/09 08:05:15;;;;;;;24.70;13.07;;;;;;;1.51;74.25;101070.28;5088288;28;20255;-69
2021/03/09 08:08:00;;;;;;;22.80;12.33;;;;;;;1.48;74.67;101062.47;5087211;28;20197;-69
2021/03/09 08:10:44;;;;;;;22.10;13.23;;;;;;;1.47;74.52;101071.25;5085386;28;20226;-68
2021/03/09 08:13:21;;;;;;;25.87;12.97;;;;;;;1.47;74.75;101063.38;5086571;28;20230;-69
2021/03/09 08:15:47;;;;;;;23.23;13.07;;;;;;;1.46;74.88;101062.50;5086691;28;20210;-69
2021/03/09 08:18:42;;;;;;;25.90;13.03;;;;;;;1.45;75.32;101062.53;5087380;28;20299;-69
2021/03/09 08:21:08;;;;;;;27.83;13.50;;;;;;;1.43;75.63;101057.34;5085334;28;20229;-69
2021/03/09 08:23:53;;;;;;;27.87;13.27;;;;;;;1.42;75.60;101057.38;5084852;28;20200;-69
2021/03/09 08:26:51;;;;;;;29.67;14.17;;;;;;;1.39;75.76;101051.28;5090421;28;20208;-68
2021/03/09 08:29:33;;;;;;;25.17;13.17;;;;;;;1.38;76.25;101062.66;5082009;28;20239;-69
2021/03/09 08:32:38;;;;;;;28.37;13.17;;;;;;;1.36;76.33;101053.09;5089317;28;20227;-70
2021/03/09 08:35:35;;;;;;;23.57;13.50;;;;;;;1.34;76.73;101066.22;5086865;28;20204;-69
2021/03/09 08:38:12;;;;;;;27.93;14.13;;;;;;;1.34;77.15;101063.63;5087961;28;20200;-69
2021/03/09 08:41:01;;;;;;;26.07;14.13;;;;;;;1.34;77.07;101053.13;5087665;28;20231;-69
2021/03/09 08:43:27;;;;;;;29.80;13.23;;;;;;;1.34;77.48;101053.13;5082966;28;20559;-70
2021/03/09 08:45:57;;;;;;;27.33;13.23;;;;;;;1.35;77.42;101051.34;5084476;28;20224;-69
2021/03/09 08:48:54;;;;;;;24.13;12.87;;;;;;;1.34;77.59;101055.75;5087080;28;20196;-68
2021/03/09 08:51:50;;;;;;;24.97;13.77;;;;;;;1.34;77.72;101050.50;5089699;28;20293;-69
2021/03/09 08:54:27;;;;;;;25.30;13.50;;;;;;;1.34;77.79;101053.13;5089097;28;20216;-69
2021/03/09 08:56:56;;;;;;;25.63;13.00;;;;;;;1.36;78.42;101045.22;5080373;28;20246;-69
2021/03/09 08:59:23;;;;;;;23.30;13.33;;;;;;;1.38;78.50;101048.69;5087333;28;20208;-69
2021/03/09 09:01:50;;;;;;;26.53;13.60;;;;;;;1.38;78.48;101044.28;5088424;28;20231;-69
2021/03/09 09:04:16;;;;;;;25.27;14.03;;;;;;;1.41;78.87;101047.75;5088252;28;20267;-70
2021/03/09 09:06:43;;;;;;;26.70;14.90;;;;;;;1.42;78.77;101042.47;5090230;28;20269;-70
2021/03/09 09:09:09;;;;;;;22.40;13.77;;;;;;;1.44;78.85;101048.53;5089131;28;20337;-70
2021/03/09 09:11:35;;;;;;;26.87;13.10;;;;;;;1.45;79.17;101049.41;5087680;28;20226;-69
2021/03/09 09:14:15;;;;;;;25.83;13.87;;;;;;;1.47;79.03;101042.38;5089279;28;20676;-69
2021/03/09 09:16:41;;;;;;;31.13;14.60;;;;;;;1.47;79.18;101045.00;5086380;28;20211;-69
2021/03/09 09:19:07;;;;;;;26.67;13.57;;;;;;;1.46;79.41;101044.13;5087459;28;20303;-69
2021/03/09 09:21:43;;;;;;;29.97;15.17;;;;;;;1.45;79.76;101037.16;5086186;28;20248;-69
2021/03/09 09:24:16;;;;;;;29.27;15.20;;;;;;;1.48;79.26;101036.22;5086557;28;20224;-68
2021/03/09 09:26:42;;;;;;;24.63;13.53;;;;;;;1.49;79.72;101040.59;5086681;28;20801;-69
2021/03/09 09:29:08;;;;;;;28.30;14.57;;;;;;;1.49;79.85;101037.97;5086931;28;20208;-69
2021/03/09 09:31:35;;;;;;;23.00;13.93;;;;;;;1.52;80.08;101037.91;5087296;28;20234;-70
2021/03/09 09:34:02;;;;;;;29.43;13.73;;;;;;;1.55;79.84;101040.47;5088793;28;20207;-69
2021/03/09 09:36:29;;;;;;;25.20;13.83;;;;;;;1.55;80.29;101033.47;5082522;28;20200;-69
2021/03/09 09:38:56;;;;;;;24.57;13.93;;;;;;;1.57;80.06;101039.53;5086406;28;20208;-69
2021/03/09 09:41:22;;;;;;;28.07;14.60;;;;;;;1.58;80.35;101033.41;5085907;28;20236;-69
2021/03/09 09:43:49;;;;;;;28.77;14.07;;;;;;;1.60;80.36;101030.75;5086021;28;20203;-70
2021/03/09 09:46:19;;;;;;;26.83;14.90;;;;;;;1.63;80.42;101028.91;5084659;28;20358;-70
2021/03/09 09:48:46;;;;;;;28.03;13.57;;;;;;;1.65;80.54;101026.25;5082180;28;20493;-69
2021/03/09 09:51:14;;;;;;;28.27;15.13;;;;;;;1.65;80.50;101029.75;5085703;28;20327;-69
2021/03/09 09:53:42;;;;;;;26.90;14.83;;;;;;;1.64;80.40;101028.00;5084589;28;20203;-70
2021/03/09 09:56:09;;;;;;;23.37;13.13;;;;;;;1.66;80.79;101027.97;5085015;28;20254;-70
2021/03/09 09:58:43;;;;;;;25.43;14.07;;;;;;;1.67;80.78;101032.34;5083533;28;20208;-70
2021/03/09 10:01:10;;;;;;;28.70;15.43;;;;;;;1.71;80.79;101026.13;5086580;28;20305;-70
2021/03/09 10:03:51;;;;;;;25.90;14.33;;;;;;;1.74;81.21;101026.94;5084838;28;20204;-70
2021/03/09 10:06:18;;;;;;;24.43;14.70;;;;;;;1.77;81.27;101023.38;5086994;28;20315;-71
2021/03/09 10:08:45;;;;;;;23.53;13.67;;;;;;;1.79;80.72;101021.59;5088471;28;20204;-69
2021/03/09 10:11:12;;;;;;;28.10;14.93;;;;;;;1.80;80.88;101025.91;5082069;28;20219;-70
2021/03/09 10:13:38;;;;;;;26.47;14.27;;;;;;;1.82;80.68;101032.00;5076268;28;20294;-69
2021/03/09 10:16:05;;;;;;;23.60;14.77;;;;;;;1.85;81.51;101023.19;5080601;28;20970;-69
2021/03/09 10:18:32;;;;;;;25.47;15.33;;;;;;;1.87;81.46;101032.78;5082267;28;20244;-69
2021/03/09 10:21:09;;;;;;;26.50;15.03;;;;;;;1.89;81.09;101023.09;5075420;28;20227;-68
2021/03/09 10:23:51;;;;;;;24.87;14.03;;;;;;;1.92;81.38;101020.41;5074219;28;20200;-69
2021/03/09 10:26:29;;;;;;;30.77;15.23;;;;;;;1.95;81.54;101022.97;5089851;28;20220;-69
2021/03/09 10:29:00;;;;;;;28.73;15.37;;;;;;;1.97;81.27;101025.59;5085649;28;20238;-69
2021/03/09 10:31:26;;;;;;;28.63;15.27;;;;;;;1.98;81.57;101025.53;5088056;28;20234;-68
2021/03/09 10:34:01;;;;;;;27.87;15.43;;;;;;;1.99;81.88;101024.63;5087196;28;20205;-68
2021/03/09 10:36:47;;;;;;;27.67;14.67;;;;;;;1.99;81.67;101021.13;5082897;28;20696;-68
2021/03/09 10:39:13;;;;;;;28.27;14.73;;;;;;;1.99;81.69;101014.13;5079245;28;20572;-68
2021/03/09 10:41:39;;;;;;;27.17;14.70;;;;;;;2.00;82.10;101021.09;5084790;28;20239;-69
2021/03/09 10:44:06;;;;;;;26.00;14.57;;;;;;;2.02;82.27;101019.31;5085329;28;20204;-68
2021/03/09 10:46:34;;;;;;;25.57;14.90;;;;;;;2.03;81.92;101015.78;5087209;28;20204;-68
2021/03/09 10:49:01;;;;;;;26.93;15.23;;;;;;;2.05;81.74;101019.25;5085857;28;21245;-68
2021/03/09 10:51:27;;;;;;;33.00;17.63;;;;;;;2.07;82.15;101016.59;5084513;28;20311;-68
2021/03/09 10:53:54;;;;;;;33.27;17.50;;;;;;;2.06;82.37;101015.72;5086909;28;20299;-68
2021/03/09 10:56:20;;;;;;;30.80;17.10;;;;;;;2.07;82.24;101019.22;5087174;28;20602;-69
2021/03/09 10:58:46;;;;;;;32.53;17.83;;;;;;;2.09;82.05;101018.28;5086383;28;20196;-66
2021/03/09 11:01:12;;;;;;;28.40;15.73;;;;;;;2.08;82.41;101000.78;5084876;28;20224;-68
2021/03/09 11:03:38;;;;;;;27.47;14.87;;;;;;;2.09;82.07;101013.03;5086460;28;20207;-67
2021/03/09 11:06:05;;;;;;;29.63;15.63;;;;;;;2.09;81.92;101010.41;5087636;28;20234;-67
2021/03/09 11:08:31;;;;;;;29.90;15.00;;;;;;;2.11;82.46;101009.50;5087221;28;20370;-67
2021/03/09 11:10:58;;;;;;;27.57;15.37;;;;;;;2.10;82.57;101013.88;5082593;28;20223;-67
2021/03/09 11:13:24;;;;;;;26.77;15.80;;;;;;;2.13;82.62;101008.56;5086963;28;20200;-67
2021/03/09 11:15:50;;;;;;;29.97;15.13;;;;;;;2.14;82.80;101006.81;5088533;28;20641;-67
2021/03/09 11:18:16;;;;;;;27.13;15.27;;;;;;;2.16;82.20;101007.59;5086217;28;20208;-67
2021/03/09 11:20:43;;;;;;;30.03;15.93;;;;;;;2.18;82.25;101009.31;5087440;28;20227;-67
2021/03/09 11:23:09;;;;;;;29.80;16.07;;;;;;;2.21;82.25;101003.97;5088145;28;20204;-67
2021/03/09 11:25:36;;;;;;;27.53;15.90;;;;;;;2.24;82.66;100988.16;5087358;28;20226;-67
2021/03/09 11:28:04;;;;;;;24.87;14.80;;;;;;;2.27;82.39;101003.84;5088118;28;20575;-67
2021/03/09 11:30:31;;;;;;;27.50;15.67;;;;;;;2.30;82.94;101000.28;5086752;28;20220;-67
2021/03/09 11:32:57;;;;;;;25.93;15.20;;;;;;;2.32;83.30;100985.34;5086994;28;20294;-67